createdAt,value
2023-05-13T00:00:48.538Z,101206.80
2023-05-13T00:03:18.926Z,101207.61
2023-05-13T00:05:49.213Z,101203.14
2023-05-13T00:08:19.600Z,101201.29
2023-05-13T00:10:49.828Z,101200.48
2023-05-13T00:13:20.779Z,101200.48
2023-05-13T00:15:51.545Z,101208.61
2023-05-13T00:18:22.077Z,101206.80
2023-05-13T00:20:52.756Z,101218.24
2023-05-13T00:23:22.941Z,101213.12
2023-05-13T00:25:53.402Z,101213.12
2023-05-13T00:28:24.014Z,101210.63
2023-05-13T00:30:53.849Z,101208.16
2023-05-13T00:33:23.972Z,101211.98
2023-05-13T00:35:54.899Z,101216.48
2023-05-13T00:38:25.107Z,101217.48
2023-05-13T00:40:55.340Z,101213.33
2023-05-13T00:43:25.674Z,101212.84
2023-05-13T00:45:56.434Z,101216.66
2023-05-13T00:48:29.791Z,101222.33
2023-05-13T00:51:00.739Z,101221.02
2023-05-13T00:53:32.902Z,101213.39
2023-05-13T00:56:01.579Z,101221.06
2023-05-13T00:58:31.740Z,101227.72
2023-05-13T01:01:12.476Z,101232.73
2023-05-13T01:03:51.085Z,101241.39
2023-05-13T01:06:27.238Z,101226.14
2023-05-13T01:09:02.305Z,101226.83
2023-05-13T01:11:37.012Z,101229.02
2023-05-13T01:14:12.580Z,101219.89
2023-05-13T01:16:49.321Z,101219.58
2023-05-13T01:19:34.437Z,101221.11
2023-05-13T01:22:05.165Z,101218.14
2023-05-13T01:24:36.274Z,101223.94
2023-05-13T01:27:07.717Z,101220.97
2023-05-13T01:29:40.489Z,101221.49
2023-05-13T01:32:12.653Z,101224.64
2023-05-13T01:34:44.174Z,101232.28
2023-05-13T01:37:15.146Z,101233.61
2023-05-13T01:39:47.486Z,101233.47
2023-05-13T01:42:18.446Z,101240.27
2023-05-13T01:44:48.158Z,101245.23
2023-05-13T01:47:18.273Z,101242.25
2023-05-13T01:49:48.831Z,101246.42
2023-05-13T01:52:18.936Z,101241.59
2023-05-13T01:54:49.647Z,101242.26
2023-05-13T01:57:21.201Z,101239.45
2023-05-13T01:59:52.712Z,101237.28
2023-05-13T02:02:22.426Z,101245.08
2023-05-13T02:04:52.580Z,101247.39
2023-05-13T02:07:23.524Z,101247.20
2023-05-13T02:09:59.086Z,101246.05
2023-05-13T02:12:29.898Z,101240.41
2023-05-13T02:15:01.054Z,101250.81
2023-05-13T02:17:33.651Z,101252.09
2023-05-13T02:20:08.040Z,101251.93
2023-05-13T02:22:39.385Z,101257.88
2023-05-13T02:25:12.172Z,101246.09
2023-05-13T02:27:40.850Z,101259.97
2023-05-13T02:30:13.527Z,101252.66
2023-05-13T02:32:44.080Z,101251.50
2023-05-13T02:35:15.705Z,101255.59
2023-05-13T02:37:46.233Z,101262.20
2023-05-13T02:40:17.142Z,101248.61
2023-05-13T02:42:48.866Z,101253.38
2023-05-13T02:45:19.070Z,101250.23
2023-05-13T02:47:50.675Z,101255.16
2023-05-13T02:50:21.550Z,101251.00
2023-05-13T02:52:51.859Z,101263.73
2023-05-13T02:55:23.690Z,101272.80
2023-05-13T02:57:56.398Z,101278.41
2023-05-13T03:00:27.051Z,101278.72
2023-05-13T03:02:58.263Z,101275.40
2023-05-13T03:05:29.863Z,101279.88
2023-05-13T03:08:00.967Z,101280.86
2023-05-13T03:10:31.504Z,101281.00
2023-05-13T03:13:02.236Z,101276.55
2023-05-13T03:15:33.785Z,101275.56
2023-05-13T03:18:03.757Z,101283.51
2023-05-13T03:20:34.165Z,101281.53
2023-05-13T03:23:06.724Z,101278.72
2023-05-13T03:25:37.941Z,101279.56
2023-05-13T03:28:09.909Z,101276.75
2023-05-13T03:30:43.097Z,101275.62
2023-05-13T03:33:17.917Z,101286.03
2023-05-13T03:35:49.732Z,101278.94
2023-05-13T03:38:21.841Z,101292.84
2023-05-13T03:40:52.574Z,101293.52
2023-05-13T03:43:23.262Z,101295.01
2023-05-13T03:45:58.148Z,101293.88
2023-05-13T03:48:29.700Z,101289.94
2023-05-13T03:51:01.443Z,101302.85
2023-05-13T03:53:32.577Z,101299.75
2023-05-13T03:56:02.705Z,101305.55
2023-05-13T03:58:32.613Z,101298.95
2023-05-13T04:01:03.141Z,101307.42
2023-05-13T04:03:33.873Z,101304.95
2023-05-13T04:06:03.990Z,101308.80
2023-05-13T04:08:34.513Z,101306.52
2023-05-13T04:11:04.840Z,101308.52
2023-05-13T04:13:36.605Z,101305.38
2023-05-13T04:16:08.153Z,101308.23
2023-05-13T04:18:38.261Z,101308.44
2023-05-13T04:21:11.055Z,101311.44
2023-05-13T04:23:42.186Z,101312.45
2023-05-13T04:26:12.492Z,101311.14
2023-05-13T04:28:43.243Z,101313.14
2023-05-13T04:31:13.552Z,101315.14
2023-05-13T04:33:44.908Z,101322.45
2023-05-13T04:36:15.404Z,101319.99
2023-05-13T04:38:45.575Z,101322.14
2023-05-13T04:41:15.879Z,101332.75
2023-05-13T04:43:48.252Z,101333.94
2023-05-13T04:46:18.872Z,101328.97
2023-05-13T04:48:48.984Z,101334.44
2023-05-13T04:51:19.629Z,101330.97
2023-05-13T04:53:50.569Z,101333.77
2023-05-13T04:56:21.290Z,101342.58
2023-05-13T04:58:51.645Z,101344.23
2023-05-13T05:01:21.969Z,101345.05
2023-05-13T05:03:53.343Z,101342.05
2023-05-13T05:06:23.611Z,101344.36
2023-05-13T05:08:53.937Z,101347.84
2023-05-13T05:11:24.875Z,101356.27
2023-05-13T05:13:55.611Z,101354.24
2023-05-13T05:16:25.308Z,101361.84
2023-05-13T05:18:55.973Z,101359.70
2023-05-13T05:21:26.167Z,101359.13
2023-05-13T05:23:56.910Z,101365.75
2023-05-13T05:26:28.450Z,101366.02
2023-05-13T05:28:57.826Z,101364.62
2023-05-13T05:31:28.084Z,101357.70
2023-05-13T05:34:00.862Z,101364.92
2023-05-13T05:36:31.586Z,101362.33
2023-05-13T05:39:01.586Z,101369.34
2023-05-13T05:41:36.942Z,101364.43
2023-05-13T05:44:07.471Z,101372.63
2023-05-13T05:46:37.787Z,101363.84
2023-05-13T05:49:08.333Z,101376.37
2023-05-13T05:51:39.666Z,101364.70
2023-05-13T05:54:11.627Z,101368.02
2023-05-13T05:56:42.162Z,101373.16
2023-05-13T05:59:11.604Z,101371.08
2023-05-13T06:01:41.990Z,101359.37
2023-05-13T06:04:12.782Z,101371.47
2023-05-13T06:06:44.129Z,101371.40
2023-05-13T06:09:15.002Z,101375.87
2023-05-13T06:11:44.911Z,101380.35
2023-05-13T06:14:14.999Z,101370.59
2023-05-13T06:16:46.320Z,101372.34
2023-05-13T06:19:17.166Z,101379.44
2023-05-13T06:21:48.251Z,101378.89
2023-05-13T06:24:18.778Z,101376.27
2023-05-13T06:26:50.123Z,101384.14
2023-05-13T06:29:19.831Z,101381.30
2023-05-13T06:31:50.175Z,101380.13
2023-05-13T06:34:20.888Z,101388.79
2023-05-13T06:36:51.420Z,101392.95
2023-05-13T06:39:21.865Z,101391.12
2023-05-13T06:41:52.266Z,101397.36
2023-05-13T06:44:22.796Z,101391.02
2023-05-13T06:46:53.599Z,101385.68
2023-05-13T06:49:24.677Z,101392.72
2023-05-13T06:51:55.016Z,101388.20
2023-05-13T06:54:27.045Z,101392.76
2023-05-13T06:56:57.278Z,101389.45
2023-05-13T06:59:26.793Z,101384.12
2023-05-13T07:01:57.105Z,101385.38
2023-05-13T07:04:28.856Z,101386.39
2023-05-13T07:06:58.163Z,101387.04
2023-05-13T07:09:28.481Z,101377.77
2023-05-13T07:11:59.156Z,101378.19
2023-05-13T07:14:28.924Z,101377.98
2023-05-13T07:16:59.082Z,101388.89
2023-05-13T07:19:29.775Z,101391.81
2023-05-13T07:21:59.892Z,101384.59
2023-05-13T07:24:30.414Z,101386.63
2023-05-13T07:27:03.303Z,101382.69
2023-05-13T07:29:33.325Z,101379.78
2023-05-13T07:32:07.266Z,101381.20
2023-05-13T07:34:38.256Z,101379.09
2023-05-13T07:37:08.998Z,101377.20
2023-05-13T07:39:39.114Z,101382.94
2023-05-13T07:42:09.851Z,101384.14
2023-05-13T07:44:40.166Z,101389.27
2023-05-13T07:47:10.383Z,101376.63
2023-05-13T07:49:41.237Z,101379.46
2023-05-13T07:52:11.758Z,101369.30
2023-05-13T07:54:41.609Z,101380.59
2023-05-13T07:57:12.340Z,101378.68
2023-05-13T07:59:44.571Z,101382.98
2023-05-13T08:02:14.698Z,101375.25
2023-05-13T08:04:45.444Z,101375.34
2023-05-13T08:07:16.359Z,101375.02
2023-05-13T08:09:46.679Z,101369.28
2023-05-13T08:12:16.798Z,101372.11
2023-05-13T08:14:48.754Z,101367.69
2023-05-13T08:17:19.315Z,101365.39
2023-05-13T08:19:49.610Z,101374.42
2023-05-13T08:22:20.153Z,101372.92
2023-05-13T08:24:50.664Z,101372.47
2023-05-13T08:27:21.186Z,101373.67
2023-05-13T08:29:50.907Z,101378.99
2023-05-13T08:32:21.274Z,101386.16
2023-05-13T08:34:51.778Z,101379.87
2023-05-13T08:37:22.276Z,101382.48
2023-05-13T08:39:52.404Z,101379.95
2023-05-13T08:42:23.271Z,101379.27
2023-05-13T08:44:54.072Z,101382.09
2023-05-13T08:47:31.761Z,101383.53
2023-05-13T08:50:02.240Z,101390.31
2023-05-13T08:52:33.650Z,101396.08
2023-05-13T08:55:06.630Z,101391.64
2023-05-13T08:57:36.745Z,101391.78
2023-05-13T09:00:10.204Z,101387.75
2023-05-13T09:02:41.306Z,101391.55
2023-05-13T09:05:12.855Z,101390.97
2023-05-13T09:07:43.567Z,101386.67
2023-05-13T09:10:13.906Z,101389.03
2023-05-13T09:12:45.174Z,101389.29
2023-05-13T09:15:17.007Z,101388.23
2023-05-13T09:17:51.676Z,101399.26
2023-05-13T09:20:24.801Z,101386.84
2023-05-13T09:22:56.711Z,101388.39
2023-05-13T09:25:28.222Z,101380.77
2023-05-13T09:27:59.876Z,101376.55
2023-05-13T09:30:32.601Z,101374.77
2023-05-13T09:33:09.471Z,101375.45
2023-05-13T09:35:41.663Z,101383.91
2023-05-13T09:38:16.950Z,101385.30
2023-05-13T09:40:55.899Z,101388.00
2023-05-13T09:43:28.243Z,101380.73
2023-05-13T09:46:01.358Z,101378.84
2023-05-13T09:48:33.626Z,101379.91
2023-05-13T09:51:04.320Z,101379.32
2023-05-13T09:53:34.450Z,101379.32
2023-05-13T09:56:09.708Z,101375.56
2023-05-13T09:58:39.999Z,101370.53
2023-05-13T10:01:10.756Z,101380.48
2023-05-13T10:03:41.859Z,101374.29
2023-05-13T10:06:12.338Z,101381.33
2023-05-13T10:08:44.571Z,101372.17
2023-05-13T10:11:16.913Z,101383.55
2023-05-13T10:13:50.344Z,101374.28
2023-05-13T10:16:21.913Z,101382.59
2023-05-13T10:18:53.693Z,101380.22
2023-05-13T10:21:25.553Z,101367.66
2023-05-13T10:23:56.765Z,101375.28
2023-05-13T10:26:28.099Z,101370.69
2023-05-13T10:28:59.649Z,101364.00
2023-05-13T10:31:29.810Z,101372.43
2023-05-13T10:34:00.298Z,101369.83
2023-05-13T10:36:54.380Z,101377.64
2023-05-13T10:39:44.351Z,101370.69
2023-05-13T10:42:40.079Z,101368.27
2023-05-13T10:45:11.213Z,101377.93
2023-05-13T10:47:42.002Z,101378.36
2023-05-13T10:50:25.391Z,101376.89
2023-05-13T10:52:59.331Z,101367.30
2023-05-13T10:55:29.506Z,101375.58
2023-05-13T10:58:10.218Z,101365.41
2023-05-13T11:00:45.102Z,101363.88
2023-05-13T11:03:30.109Z,101362.39
2023-05-13T11:06:14.016Z,101355.25
2023-05-13T11:08:45.976Z,101364.01
2023-05-13T11:11:34.317Z,101367.98
2023-05-13T11:14:14.306Z,101371.45
2023-05-13T11:16:48.912Z,101372.95
2023-05-13T11:19:23.726Z,101378.70
2023-05-13T11:21:56.095Z,101371.94
2023-05-13T11:24:26.850Z,101372.80
2023-05-13T11:26:59.002Z,101361.70
2023-05-13T11:29:32.935Z,101371.94
2023-05-13T11:32:06.410Z,101374.65
2023-05-13T11:34:37.130Z,101371.64
2023-05-13T11:37:11.143Z,101366.73
2023-05-13T11:39:41.826Z,101372.09
2023-05-13T11:42:13.171Z,101374.47
2023-05-13T11:44:46.832Z,101364.97
2023-05-13T11:47:27.620Z,101370.39
2023-05-13T11:49:59.137Z,101365.78
2023-05-13T11:52:30.288Z,101372.03
2023-05-13T11:55:00.607Z,101371.75
2023-05-13T11:57:32.182Z,101370.95
2023-05-13T12:00:04.954Z,101369.31
2023-05-13T12:02:40.043Z,101373.90
2023-05-13T12:05:12.582Z,101368.98
2023-05-13T12:07:43.691Z,101369.99
2023-05-13T12:10:14.228Z,101371.90
2023-05-13T12:12:45.979Z,101380.82
2023-05-13T12:15:18.382Z,101378.11
2023-05-13T12:17:49.836Z,101377.31
2023-05-13T12:20:20.035Z,101371.33
2023-05-13T12:22:56.450Z,101371.90
2023-05-13T12:25:41.802Z,101370.27
2023-05-13T12:28:17.108Z,101365.41
2023-05-13T12:30:58.683Z,101364.08
2023-05-13T12:33:31.091Z,101373.03
2023-05-13T12:36:20.050Z,101371.39
2023-05-13T12:39:00.076Z,101365.91
2023-05-13T12:41:34.260Z,101360.73
2023-05-13T12:44:08.084Z,101364.02
2023-05-13T12:46:39.731Z,101360.23
2023-05-13T12:49:11.740Z,101365.91
2023-05-13T12:51:43.359Z,101358.03
2023-05-13T12:54:14.101Z,101358.86
2023-05-13T12:56:44.432Z,101350.74
2023-05-13T12:59:16.356Z,101337.45
2023-05-13T13:01:47.729Z,101337.14
2023-05-13T13:04:18.698Z,101340.42
2023-05-13T13:06:49.191Z,101344.50
2023-05-13T13:09:19.314Z,101337.77
2023-05-13T13:11:49.021Z,101338.84
2023-05-13T13:14:19.512Z,101336.14
2023-05-13T13:16:49.602Z,101340.72
2023-05-13T13:19:20.316Z,101328.25
2023-05-13T13:21:51.135Z,101326.38
2023-05-13T13:24:21.462Z,101329.33
2023-05-13T13:26:53.434Z,101331.23
2023-05-13T13:29:23.171Z,101333.94
2023-05-13T13:31:53.750Z,101327.45
2023-05-13T13:34:24.383Z,101332.92
2023-05-13T13:36:55.966Z,101330.58
2023-05-13T13:39:26.464Z,101327.19
2023-05-13T13:41:56.997Z,101329.20
2023-05-13T13:44:28.018Z,101327.95
2023-05-13T13:46:58.875Z,101326.66
2023-05-13T13:49:29.804Z,101321.34
2023-05-13T13:52:00.175Z,101319.23
2023-05-13T13:54:30.050Z,101317.36
2023-05-13T13:57:01.210Z,101316.80
2023-05-13T13:59:31.071Z,101314.65
2023-05-13T14:02:01.454Z,101315.26
2023-05-13T14:04:33.916Z,101317.23
2023-05-13T14:07:06.160Z,101313.23
2023-05-13T14:09:36.311Z,101313.00
2023-05-13T14:12:08.307Z,101311.45
2023-05-13T14:14:37.737Z,101308.56
2023-05-13T14:17:08.293Z,101307.48
2023-05-13T14:19:38.392Z,101302.62
2023-05-13T14:22:08.083Z,101301.27
2023-05-13T14:24:38.426Z,101297.78
2023-05-13T14:27:09.161Z,101308.35
2023-05-13T14:29:38.975Z,101306.75
2023-05-13T14:32:10.014Z,101305.43
2023-05-13T14:34:40.335Z,101303.52
2023-05-13T14:37:10.456Z,101309.77
2023-05-13T14:39:40.798Z,101308.11
2023-05-13T14:42:11.540Z,101303.73
2023-05-13T14:44:41.837Z,101300.95
2023-05-13T14:47:12.601Z,101306.55
2023-05-13T14:49:43.506Z,101308.14
2023-05-13T14:52:14.026Z,101306.78
2023-05-13T14:54:44.557Z,101299.41
2023-05-13T14:57:14.472Z,101292.88
2023-05-13T14:59:43.971Z,101298.56
2023-05-13T15:02:16.773Z,101291.75
2023-05-13T15:04:46.260Z,101299.55
2023-05-13T15:07:16.598Z,101288.11
2023-05-13T15:09:48.154Z,101298.39
2023-05-13T15:12:16.817Z,101301.91
2023-05-13T15:14:53.293Z,101298.63
2023-05-13T15:17:23.720Z,101299.15
2023-05-13T15:19:54.137Z,101299.15
2023-05-13T15:22:23.989Z,101290.22
2023-05-13T15:24:53.970Z,101292.61
2023-05-13T15:27:24.086Z,101293.95
2023-05-13T15:29:54.839Z,101290.13
2023-05-13T15:32:24.732Z,101296.00
2023-05-13T15:34:55.255Z,101304.59
2023-05-13T15:37:25.380Z,101304.45
2023-05-13T15:39:55.306Z,101305.77
2023-05-13T15:42:26.332Z,101301.69
2023-05-13T15:44:55.852Z,101293.23
2023-05-13T15:47:25.946Z,101293.74
2023-05-13T15:49:56.585Z,101293.17
2023-05-13T15:52:27.928Z,101290.74
2023-05-13T15:54:58.465Z,101285.83
2023-05-13T15:57:29.190Z,101284.44
2023-05-13T15:59:59.024Z,101282.73
2023-05-13T16:02:36.215Z,101281.88
2023-05-13T16:05:11.359Z,101284.52
2023-05-13T16:07:41.961Z,101279.84
2023-05-13T16:10:14.837Z,101279.55
2023-05-13T16:12:44.589Z,101287.47
2023-05-13T16:15:14.494Z,101286.90
2023-05-13T16:17:44.488Z,101284.88
2023-05-13T16:20:15.229Z,101289.64
2023-05-13T16:22:45.745Z,101288.73
2023-05-13T16:25:16.266Z,101288.66
2023-05-13T16:27:46.800Z,101276.13
2023-05-13T16:30:16.891Z,101281.12
2023-05-13T16:32:52.317Z,101281.53
2023-05-13T16:35:23.100Z,101286.28
2023-05-13T16:37:53.405Z,101284.81
2023-05-13T16:40:23.413Z,101289.06
2023-05-13T16:42:55.039Z,101286.50
2023-05-13T16:45:26.592Z,101291.22
2023-05-13T16:47:57.041Z,101285.89
2023-05-13T16:50:27.682Z,101287.34
2023-05-13T16:52:57.810Z,101289.59
2023-05-13T16:55:29.308Z,101296.91
2023-05-13T16:58:01.115Z,101289.45
2023-05-13T17:00:29.636Z,101298.98
2023-05-13T17:03:01.137Z,101296.66
2023-05-13T17:05:31.468Z,101293.50
2023-05-13T17:08:01.588Z,101288.69
2023-05-13T17:10:31.774Z,101296.31
2023-05-13T17:13:02.235Z,101299.37
2023-05-13T17:15:32.804Z,101285.66
2023-05-13T17:18:03.785Z,101288.13
2023-05-13T17:20:34.169Z,101286.24
2023-05-13T17:23:04.141Z,101289.17
2023-05-13T17:25:34.669Z,101292.66
2023-05-13T17:28:08.274Z,101293.47
2023-05-13T17:30:38.105Z,101296.92
2023-05-13T17:33:09.240Z,101298.30
2023-05-13T17:35:39.505Z,101305.91
2023-05-13T17:38:10.174Z,101296.16
2023-05-13T17:40:40.505Z,101303.70
2023-05-13T17:43:11.268Z,101314.46
2023-05-13T17:45:44.601Z,101304.03
2023-05-13T17:48:15.168Z,101309.17
2023-05-13T17:50:45.484Z,101299.48
2023-05-13T17:53:15.337Z,101302.63
2023-05-13T17:55:47.362Z,101303.97
2023-05-13T17:58:17.677Z,101311.67
2023-05-13T18:00:49.024Z,101305.09
2023-05-13T18:03:21.195Z,101311.78
2023-05-13T18:05:51.608Z,101308.69
2023-05-13T18:08:22.387Z,101311.50
2023-05-13T18:10:52.172Z,101306.17
2023-05-13T18:13:22.077Z,101313.08
2023-05-13T18:15:52.010Z,101323.22
2023-05-13T18:18:22.728Z,101321.64
2023-05-13T18:20:53.451Z,101322.83
2023-05-13T18:23:23.371Z,101322.71
2023-05-13T18:25:55.898Z,101328.94
2023-05-13T18:28:26.469Z,101327.71
2023-05-13T18:30:56.412Z,101327.65
2023-05-13T18:33:26.295Z,101334.09
2023-05-13T18:35:57.032Z,101333.53
2023-05-13T18:38:27.555Z,101333.39
2023-05-13T18:41:02.518Z,101331.25
2023-05-13T18:43:32.713Z,101337.09
2023-05-13T18:46:03.297Z,101338.03
2023-05-13T18:48:34.177Z,101341.39
2023-05-13T18:51:05.128Z,101337.09
2023-05-13T18:53:35.385Z,101340.78
2023-05-13T18:56:06.138Z,101343.06
2023-05-13T18:58:37.109Z,101338.17
2023-05-13T19:01:10.889Z,101332.72
2023-05-13T19:03:40.881Z,101338.17
2023-05-13T19:06:11.760Z,101340.39
2023-05-13T19:08:42.223Z,101342.41
2023-05-13T19:11:13.315Z,101337.25
2023-05-13T19:13:47.526Z,101346.60
2023-05-13T19:16:20.465Z,101347.41
2023-05-13T19:18:51.236Z,101342.25
2023-05-13T19:21:23.123Z,101340.67
2023-05-13T19:23:53.440Z,101334.47
2023-05-13T19:26:23.901Z,101336.20
2023-05-13T19:28:54.702Z,101333.04
2023-05-13T19:31:26.509Z,101341.17
2023-05-13T19:33:57.245Z,101341.60
2023-05-13T19:36:27.848Z,101340.84
2023-05-13T19:38:58.863Z,101340.77
2023-05-13T19:41:29.391Z,101341.29
2023-05-13T19:44:00.939Z,101335.25
2023-05-13T19:46:31.520Z,101340.36
2023-05-13T19:49:02.203Z,101337.63
2023-05-13T19:51:32.567Z,101342.59
2023-05-13T19:54:02.849Z,101339.38
2023-05-13T19:56:33.782Z,101341.16
2023-05-13T19:59:04.323Z,101334.72
2023-05-13T20:01:35.082Z,101331.84
2023-05-13T20:04:06.267Z,101336.20
2023-05-13T20:06:36.925Z,101327.47
2023-05-13T20:09:07.949Z,101315.03
2023-05-13T20:11:37.978Z,101317.16
2023-05-13T20:14:07.882Z,101316.94
2023-05-13T20:16:38.413Z,101324.87
2023-05-13T20:19:09.368Z,101321.22
2023-05-13T20:21:39.268Z,101315.23
2023-05-13T20:24:10.218Z,101322.65
2023-05-13T20:26:40.738Z,101334.75
2023-05-13T20:29:12.076Z,101320.63
2023-05-13T20:31:42.886Z,101323.95
2023-05-13T20:34:12.879Z,101312.02
2023-05-13T20:36:43.868Z,101316.58
2023-05-13T20:39:14.405Z,101309.55
2023-05-13T20:41:45.343Z,101313.25
2023-05-13T20:44:16.693Z,101307.84
2023-05-13T20:46:47.013Z,101310.23
2023-05-13T20:49:18.362Z,101319.64
2023-05-13T20:51:49.946Z,101316.50
2023-05-13T20:54:19.530Z,101317.64
2023-05-13T20:56:49.747Z,101313.64
2023-05-13T20:59:20.462Z,101320.77
2023-05-13T21:01:50.521Z,101319.20
2023-05-13T21:04:21.138Z,101314.60
2023-05-13T21:06:51.839Z,101317.13
2023-05-13T21:09:22.590Z,101320.50
2023-05-13T21:11:53.307Z,101318.52
2023-05-13T21:14:23.433Z,101312.88
2023-05-13T21:16:54.185Z,101309.88
2023-05-13T21:19:25.431Z,101312.23
2023-05-13T21:21:55.410Z,101311.06
2023-05-13T21:24:25.334Z,101303.34
2023-05-13T21:26:55.857Z,101309.80
2023-05-13T21:29:25.980Z,101312.30
2023-05-13T21:31:56.298Z,101310.75
2023-05-13T21:34:26.208Z,101311.86
2023-05-13T21:36:56.543Z,101302.14
2023-05-13T21:39:26.444Z,101307.70
2023-05-13T21:41:56.567Z,101302.45
2023-05-13T21:44:27.088Z,101311.55
2023-05-13T21:46:57.207Z,101309.16
2023-05-13T21:49:27.950Z,101303.91
2023-05-13T21:51:58.423Z,101304.99
2023-05-13T21:54:29.204Z,101299.75
2023-05-13T21:56:59.938Z,101302.48
2023-05-13T21:59:29.286Z,101298.88
2023-05-13T22:01:59.555Z,101300.60
2023-05-13T22:04:29.672Z,101295.34
2023-05-13T22:06:59.580Z,101297.70
2023-05-13T22:09:30.320Z,101296.77
2023-05-13T22:12:00.028Z,101300.94
2023-05-13T22:14:30.960Z,101305.15
2023-05-13T22:19:38.192Z,101311.87
2023-05-13T22:22:08.893Z,101308.26
2023-05-13T22:24:38.812Z,101310.77
2023-05-13T22:27:10.294Z,101317.59
2023-05-13T22:29:40.485Z,101321.80
2023-05-13T22:32:11.071Z,101320.64
2023-05-13T22:34:41.975Z,101321.95
2023-05-13T22:37:12.266Z,101318.33
2023-05-13T22:39:42.387Z,101313.55
2023-05-13T22:42:13.122Z,101311.39
2023-05-13T22:44:43.784Z,101310.92
2023-05-13T22:47:14.804Z,101301.80
2023-05-13T22:49:45.315Z,101303.98
2023-05-13T22:52:15.436Z,101309.79
2023-05-13T22:54:45.966Z,101309.13
2023-05-13T22:57:16.693Z,101308.00
2023-05-13T22:59:47.430Z,101311.15
2023-05-13T23:02:17.541Z,101314.33
2023-05-13T23:04:47.877Z,101314.83
2023-05-13T23:07:17.990Z,101320.47
2023-05-13T23:09:47.691Z,101319.34
2023-05-13T23:12:17.616Z,101324.14
2023-05-13T23:14:47.722Z,101315.03
2023-05-13T23:17:18.453Z,101318.02
2023-05-13T23:19:48.169Z,101314.05
2023-05-13T23:22:18.291Z,101314.38
2023-05-13T23:24:48.193Z,101301.59
2023-05-13T23:27:18.113Z,101309.08
2023-05-13T23:29:48.766Z,101308.57
2023-05-13T23:32:18.961Z,101308.23
2023-05-13T23:34:49.272Z,101318.37
2023-05-13T23:37:19.698Z,101324.82
2023-05-13T23:39:50.133Z,101330.45
2023-05-13T23:42:21.266Z,101328.14
2023-05-13T23:44:52.033Z,101326.66
2023-05-13T23:47:22.550Z,101321.68
2023-05-13T23:49:53.269Z,101327.31
2023-05-13T23:52:23.786Z,101325.80
2023-05-13T23:54:53.913Z,101328.64
2023-05-13T23:57:25.059Z,101336.92
2023-05-13T23:59:55.377Z,101337.07
